カンザスシティ の空港の天気 - METARとTAF

カンザスシティ国際空港 ( KMCI / MCI ) - アメリカ ミズーリ州カンザスシティ
飛行場実況気象(Metar)
観測時間05/28 18:53 CDT (05/28 23:53 UTC)
風向・風速南 8m/s 瞬間風速12m/s
視程10km以上
天気現象
少しの雲 雲底高度 3050m
全天の4割程度の雲 雲底高度 7620m
気温27.8℃
湿度49%
気圧1002.6hPa
METARKMCI 282353Z 18016G23KT 10SM FEW100 SCT250 28/16 A2964 RMK AO2 PK WND 18026/2317 SLP026 T02780161 10300 20261 55011
過去の天気等 Google飛行場航空写真 Wunderground天気予報

過去48時間のMETAR

飛行場予報(TAF)
発表時間: 5/28 18:43 CDT (5/28 23:43 UTC)
予報対象時間: 28日19時 CDT ~ 29日19時 CDT
風向・風速南 8m/s 瞬間風速 12m/s
視程10km以上
全天の4割程度の雲 雲底高度 4570m
28日22時 CDT から
風向・風速南 6m/s 瞬間風速 10m/s
視程10km以上
全天の4割程度の雲 雲底高度 4570m
29日9時 CDT から
風向・風速南 9m/s 瞬間風速 16m/s
視程10km以上
全天の4割程度の雲 雲底高度 6100m
KMCI 282343Z 2900/2924 18015G24KT P6SM SCT150
FM290300 17012G20KT P6SM SCT150
FM291400 18018G32KT P6SM SCT200